Time;durP1;ratioP1;P1;durP2;ratioP2;P2;SDS_P1;SDS_P2;PMS_P1;PMS_P2;Temp;Humidity;BMP_temperature;BMP_pressure;BME280_temperature;BME280_humidity;BME280_pressure;Samples;Min_cycle;Max_cycle;Signal;HPM_P1;HPM_P2
2022/12/06 00:00:02;;;;;;;0.50;0.20;;;6.20;38.50;;;;;;6070832;23;20408;-74
2022/12/06 00:02:30;;;;;;;0.50;0.10;;;6.20;36.70;;;;;;6066193;23;20908;-74
2022/12/06 00:04:58;;;;;;;0.50;0.10;;;;;;;;;;6066944;23;20499;-74
2022/12/06 00:07:26;;;;;;;0.50;0.17;;;6.10;24.00;;;;;;6066146;23;20478;-74
2022/12/06 00:09:54;;;;;;;0.50;0.20;;;6.10;22.90;;;;;;6066675;23;20407;-73
2022/12/06 00:12:21;;;;;;;0.50;0.10;;;6.10;21.90;;;;;;6066598;23;20473;-74
2022/12/06 00:14:51;;;;;;;0.50;0.10;;;6.00;14.20;;;;;;6066624;23;20419;-74
2022/12/06 00:17:19;;;;;;;0.50;0.10;;;6.00;8.60;;;;;;6066229;23;20794;-73
2022/12/06 00:19:46;;;;;;;0.60;0.30;;;6.00;13.80;;;;;;6066537;23;20471;-73
2022/12/06 00:22:14;;;;;;;0.80;0.77;;;6.00;10.60;;;;;;6066378;23;20967;-74
2022/12/06 00:24:42;;;;;;;0.50;0.10;;;5.90;8.60;;;;;;6067013;23;20707;-74
2022/12/06 00:27:10;;;;;;;1.03;0.90;;;5.80;1.00;;;;;;6068166;23;20428;-74
2022/12/06 00:29:37;;;;;;;0.50;0.30;;;5.80;1.80;;;;;;6068438;23;20493;-74
2022/12/06 00:32:06;;;;;;;0.67;0.20;;;5.80;1.00;;;;;;6068332;23;20407;-72
2022/12/06 00:34:34;;;;;;;0.83;0.20;;;5.80;1.00;;;;;;6067615;23;20414;-74
2022/12/06 00:37:02;;;;;;;0.60;0.33;;;5.80;1.00;;;;;;6067643;23;20447;-74
2022/12/06 00:39:30;;;;;;;0.50;0.10;;;5.80;1.00;;;;;;6068496;23;20420;-75
2022/12/06 00:41:58;;;;;;;0.50;0.20;;;5.70;1.00;;;;;;6068512;23;20447;-73
2022/12/06 00:44:26;;;;;;;0.50;0.17;;;5.70;1.00;;;;;;6068846;23;20415;-74
2022/12/06 00:46:54;;;;;;;0.70;0.37;;;;;;;;;;6068965;23;20489;-74
2022/12/06 00:49:23;;;;;;;1.10;0.87;;;5.50;1.00;;;;;;6068189;23;20411;-74
2022/12/06 00:51:51;;;;;;;0.50;0.10;;;5.50;1.00;;;;;;6068023;23;20462;-75
2022/12/06 00:54:19;;;;;;;0.83;0.83;;;5.50;1.00;;;;;;6067633;23;20422;-74
2022/12/06 00:56:47;;;;;;;0.50;0.10;;;5.70;4.20;;;;;;6067480;23;20447;-75
2022/12/06 00:59:15;;;;;;;0.50;0.10;;;5.70;9.40;;;;;;6068224;23;20419;-74
2022/12/06 05:02:11;;;;;;;0.50;0.10;;;5.10;1.00;;;;;;6037142;23;20598;-73
2022/12/06 05:04:39;;;;;;;0.50;0.10;;;5.10;1.00;;;;;;6067441;23;20451;-74
2022/12/06 05:07:07;;;;;;;2.73;0.43;;;5.00;1.00;;;;;;6067522;23;20395;-73
2022/12/06 05:09:35;;;;;;;0.80;0.67;;;4.90;1.00;;;;;;6067222;23;20411;-72
2022/12/06 05:12:03;;;;;;;0.50;0.10;;;4.80;1.00;;;;;;6071037;23;20431;-73
2022/12/06 05:14:31;;;;;;;0.50;0.10;;;4.80;1.00;;;;;;6073493;23;20392;-74
2022/12/06 05:16:59;;;;;;;0.50;0.10;;;4.80;1.00;;;;;;6071714;23;20456;-74
2022/12/06 05:19:29;;;;;;;0.50;0.10;;;;;;;;;;6071167;23;20404;-74
2022/12/06 05:21:56;;;;;;;1.67;1.57;;;4.80;1.00;;;;;;6069984;23;20431;-74
2022/12/06 05:24:24;;;;;;;0.50;0.10;;;4.80;1.00;;;;;;6068836;23;20420;-74
2022/12/06 05:26:52;;;;;;;2.20;2.10;;;4.90;1.00;;;;;;6068900;23;20411;-74
2022/12/06 05:29:20;;;;;;;0.70;0.50;;;4.90;1.00;;;;;;6068583;23;20402;-74
2022/12/06 05:31:48;;;;;;;1.73;1.63;;;4.80;1.00;;;;;;6067558;23;20634;-74
2022/12/06 05:34:16;;;;;;;0.50;0.10;;;4.70;1.00;;;;;;6069733;23;20416;-73
2022/12/06 05:36:45;;;;;;;0.50;0.20;;;4.70;1.00;;;;;;6073244;23;20477;-73
2022/12/06 05:39:13;;;;;;;0.50;0.10;;;4.70;1.00;;;;;;6073459;23;20407;-73
2022/12/06 05:41:41;;;;;;;0.50;0.10;;;4.70;1.00;;;;;;6073534;23;20460;-73
2022/12/06 05:44:10;;;;;;;0.50;0.10;;;4.70;1.00;;;;;;6073985;23;20400;-73
2022/12/06 05:46:38;;;;;;;1.03;0.87;;;4.80;1.00;;;;;;6071792;23;20400;-73
2022/12/06 05:49:06;;;;;;;0.50;0.10;;;4.80;1.00;;;;;;6073211;23;20412;-73
2022/12/06 05:51:33;;;;;;;0.50;0.30;;;4.90;1.00;;;;;;6073304;23;20431;-73
2022/12/06 05:54:05;;;;;;;0.50;0.20;;;4.90;1.00;;;;;;6074750;23;20468;-73
2022/12/06 05:56:33;;;;;;;0.50;0.10;;;4.90;1.00;;;;;;6074073;23;20395;-73
2022/12/06 05:59:02;;;;;;;0.50;0.10;;;4.80;1.00;;;;;;6072239;23;20452;-74
2022/12/06 06:01:29;;;;;;;0.53;0.27;;;4.80;1.00;;;;;;6071439;23;20439;-74
2022/12/06 06:03:57;;;;;;;0.50;0.10;;;6.50;1.00;;;;;;6068600;23;20416;-74
2022/12/06 06:06:25;;;;;;;0.50;0.10;;;4.90;1.00;;;;;;6069555;23;20460;-73
2022/12/06 06:08:54;;;;;;;0.70;0.47;;;4.90;1.00;;;;;;6069394;23;20410;-73
2022/12/06 06:11:23;;;;;;;0.50;0.10;;;4.90;1.00;;;;;;6067802;23;20428;-73
2022/12/06 06:13:53;;;;;;;0.50;0.10;;;4.90;1.00;;;;;;6068170;23;20888;-73
2022/12/06 06:16:21;;;;;;;0.50;0.10;;;5.00;1.00;;;;;;6067065;23;20407;-73
2022/12/06 06:18:49;;;;;;;0.50;0.23;;;5.00;1.00;;;;;;6067742;23;20826;-73
2022/12/06 06:21:17;;;;;;;0.60;0.53;;;5.00;1.00;;;;;;6067728;23;20439;-73
2022/12/06 06:23:44;;;;;;;2.60;1.40;;;5.00;1.00;;;;;;6067329;23;20463;-73
2022/12/06 06:26:12;;;;;;;0.93;0.83;;;5.00;1.00;;;;;;6069546;23;20720;-73
2022/12/06 06:28:41;;;;;;;0.60;0.50;;;5.00;1.00;;;;;;6069202;23;20407;-73
2022/12/06 06:31:09;;;;;;;0.50;0.10;;;4.80;1.00;;;;;;6066411;23;20473;-73
2022/12/06 06:33:37;;;;;;;1.83;1.70;;;4.70;1.00;;;;;;6066929;23;20420;-73
2022/12/06 06:36:06;;;;;;;0.50;0.10;;;4.70;1.00;;;;;;6066804;23;20470;-74
2022/12/06 06:38:34;;;;;;;0.50;0.10;;;4.70;1.00;;;;;;6065739;23;21072;-73
2022/12/06 06:41:02;;;;;;;0.50;0.17;;;4.80;1.00;;;;;;6066539;23;20431;-73
2022/12/06 06:43:30;;;;;;;0.50;0.10;;;4.80;1.00;;;;;;6066974;23;20410;-73
2022/12/06 06:46:01;;;;;;;0.50;0.10;;;4.80;1.00;;;;;;6066335;23;20444;-72
2022/12/06 06:48:31;;;;;;;0.50;0.10;;;4.80;1.00;;;;;;6066613;23;20404;-72
2022/12/06 06:51:02;;;;;;;0.50;0.10;;;4.80;1.00;;;;;;6065776;23;20446;-75
2022/12/06 06:53:30;;;;;;;0.87;0.77;;;4.80;1.00;;;;;;6064697;23;20393;-74
2022/12/06 06:55:58;;;;;;;0.50;0.10;;;4.80;1.00;;;;;;6066008;23;20411;-73
2022/12/06 06:58:26;;;;;;;0.50;0.10;;;4.90;1.00;;;;;;6065828;23;20475;-73
2022/12/06 07:00:54;;;;;;;0.50;0.10;;;4.90;1.00;;;;;;6066143;23;20838;-72
2022/12/06 07:03:25;;;;;;;0.60;0.50;;;4.90;1.00;;;;;;6065484;23;20450;-73
2022/12/06 07:05:53;;;;;;;1.80;1.70;;;4.90;1.00;;;;;;6064875;23;20908;-73
2022/12/06 07:08:21;;;;;;;0.70;0.50;;;3.50;1.00;;;;;;6064499;23;20407;-74
2022/12/06 07:10:49;;;;;;;0.53;0.17;;;4.80;1.00;;;;;;6066107;23;20446;-74
2022/12/06 07:13:17;;;;;;;0.50;0.10;;;;;;;;;;6065238;23;20968;-73
2022/12/06 07:15:45;;;;;;;0.50;0.10;;;4.80;1.00;;;;;;6070422;23;20415;-73
2022/12/06 07:18:13;;;;;;;0.50;0.10;;;4.80;1.00;;;;;;6072523;23;20439;-73
2022/12/06 07:20:42;;;;;;;0.50;0.10;;;4.80;1.00;;;;;;6068951;23;20490;-73
2022/12/06 07:23:10;;;;;;;0.50;0.10;;;4.80;1.00;;;;;;6065593;23;20486;-73
2022/12/06 07:25:38;;;;;;;0.50;0.10;;;4.80;1.00;;;;;;6066163;23;20464;-74
2022/12/06 07:28:06;;;;;;;0.50;0.10;;;4.90;1.00;;;;;;6065749;23;20904;-73
2022/12/06 07:30:34;;;;;;;0.90;0.60;;;5.00;1.00;;;;;;6065617;23;20408;-73
2022/12/06 07:33:02;;;;;;;0.67;0.60;;;5.00;1.00;;;;;;6066194;23;20733;-73
2022/12/06 07:35:30;;;;;;;0.50;0.10;;;5.00;1.00;;;;;;6067733;23;20877;-72
2022/12/06 07:38:19;;;;;;;0.50;0.10;;;4.90;1.00;;;;;;6066743;23;20435;-73
2022/12/06 07:40:47;;;;;;;0.50;0.30;;;4.90;1.00;;;;;;6068912;23;20407;-75
2022/12/06 07:46:27;;;;;;;0.50;0.10;;;5.00;1.00;;;;;;6000589;23;20818;-75
2022/12/06 07:48:55;;;;;;;0.70;0.53;;;5.00;1.00;;;;;;6066790;23;20488;-73
2022/12/06 07:51:22;;;;;;;0.50;0.10;;;5.00;1.00;;;;;;6066817;23;20428;-75
2022/12/06 07:53:51;;;;;;;0.50;0.10;;;5.00;1.00;;;;;;6066771;23;20478;-73
2022/12/06 07:56:19;;;;;;;0.50;0.10;;;5.00;1.00;;;;;;6067423;23;20407;-74
2022/12/06 07:58:47;;;;;;;0.50;0.10;;;4.90;1.00;;;;;;6066703;23;20495;-74
2022/12/06 08:01:15;;;;;;;0.50;0.10;;;5.00;1.00;;;;;;6067328;23;20435;-74
2022/12/06 08:03:43;;;;;;;0.50;0.10;;;5.00;1.00;;;;;;6067821;23;20439;-74
2022/12/06 08:06:11;;;;;;;0.50;0.10;;;5.00;1.00;;;;;;6067848;23;20403;-73
2022/12/06 08:08:39;;;;;;;0.50;0.10;;;5.10;1.00;;;;;;6068460;23;20467;-74
2022/12/06 08:11:09;;;;;;;0.60;0.37;;;5.10;1.00;;;;;;6068163;23;20427;-73
2022/12/06 08:13:38;;;;;;;0.50;0.10;;;5.10;1.00;;;;;;6067106;23;20440;-73
2022/12/06 08:16:06;;;;;;;0.50;0.10;;;5.10;1.00;;;;;;6067840;23;20407;-72
2022/12/06 08:18:34;;;;;;;0.50;0.10;;;5.10;1.00;;;;;;6067419;23;20442;-74
2022/12/06 08:21:02;;;;;;;0.80;0.67;;;5.00;1.00;;;;;;6066979;23;20436;-74
2022/12/06 08:23:30;;;;;;;0.50;0.10;;;5.00;1.00;;;;;;6067109;23;20415;-74
2022/12/06 08:26:03;;;;;;;0.50;0.10;;;5.10;1.00;;;;;;6067133;23;20387;-74
2022/12/06 08:28:34;;;;;;;0.50;0.10;;;5.10;1.00;;;;;;6066964;23;20510;-75
2022/12/06 08:31:06;;;;;;;0.83;0.60;;;5.10;1.00;;;;;;6067339;23;20438;-74
2022/12/06 08:33:35;;;;;;;0.50;0.10;;;5.10;1.00;;;;;;6067451;23;20384;-74
2022/12/06 08:36:08;;;;;;;0.50;0.10;;;5.20;1.00;;;;;;6067254;23;20407;-73
2022/12/06 08:38:36;;;;;;;0.50;0.10;;;5.20;1.00;;;;;;6067390;23;20531;-73
2022/12/06 08:41:04;;;;;;;0.50;0.10;;;5.20;1.00;;;;;;6067361;23;20428;-73
2022/12/06 08:43:33;;;;;;;0.50;0.10;;;5.20;1.00;;;;;;6066425;23;20407;-74
2022/12/06 08:46:01;;;;;;;0.50;0.10;;;5.30;1.00;;;;;;6066563;23;20423;-72
2022/12/06 08:48:29;;;;;;;0.60;0.37;;;5.30;1.00;;;;;;6068096;23;20471;-74
2022/12/06 08:51:02;;;;;;;0.50;0.10;;;4.50;1.00;;;;;;6066350;23;20435;-74
2022/12/06 08:53:30;;;;;;;0.50;0.10;;;5.30;1.00;;;;;;6067205;23;20426;-73
2022/12/06 08:55:57;;;;;;;0.50;0.10;;;5.30;1.00;;;;;;6067151;23;20920;-73
2022/12/06 08:58:30;;;;;;;0.50;0.10;;;5.30;1.00;;;;;;6066460;23;20504;-75
2022/12/06 09:00:59;;;;;;;0.50;0.10;;;5.30;1.00;;;;;;6066556;23;20495;-74
2022/12/06 09:03:27;;;;;;;0.50;0.10;;;5.30;1.00;;;;;;6066398;23;20970;-74
2022/12/06 09:05:55;;;;;;;0.50;0.10;;;5.40;1.00;;;;;;6066938;23;20411;-73
2022/12/06 09:08:23;;;;;;;0.50;0.10;;;5.40;1.00;;;;;;6068023;23;20412;-73
2022/12/06 09:10:53;;;;;;;0.50;0.10;;;5.50;1.00;;;;;;6067415;23;20753;-75
2022/12/06 09:13:21;;;;;;;0.50;0.10;;;5.50;1.00;;;;;;6062552;23;20412;-73
2022/12/06 09:15:49;;;;;;;0.50;0.10;;;5.50;1.00;;;;;;6067054;23;20943;-74
2022/12/06 09:18:18;;;;;;;0.50;0.10;;;5.60;1.00;;;;;;6067195;23;20423;-74
2022/12/06 09:20:46;;;;;;;0.50;0.10;;;5.60;1.00;;;;;;6070231;23;20436;-73
2022/12/06 09:23:14;;;;;;;0.50;0.10;;;5.60;1.00;;;;;;6073773;23;20404;-75
2022/12/06 09:25:42;;;;;;;0.50;0.10;;;5.70;1.00;;;;;;6067622;23;20411;-74
2022/12/06 09:28:10;;;;;;;0.50;0.30;;;5.70;1.00;;;;;;6067263;23;20408;-73
2022/12/06 09:30:38;;;;;;;0.50;0.10;;;5.70;1.00;;;;;;6066826;23;20901;-75
2022/12/06 09:33:06;;;;;;;0.50;0.10;;;5.70;1.00;;;;;;6068372;23;20905;-74
2022/12/06 09:35:36;;;;;;;0.50;0.10;;;5.80;1.00;;;;;;6068479;23;20925;-74
2022/12/06 09:38:05;;;;;;;0.50;0.10;;;5.80;1.00;;;;;;6066995;23;20439;-74
2022/12/06 09:40:38;;;;;;;0.50;0.10;;;5.80;1.00;;;;;;6064894;23;20767;-73
2022/12/06 09:43:20;;;;;;;0.50;0.10;;;5.80;1.00;;;;;;6065454;23;20414;-75
2022/12/06 09:46:05;;;;;;;0.50;0.10;;;5.80;1.00;;;;;;6066715;23;20463;-74
2022/12/06 09:49:03;;;;;;;0.50;0.10;;;5.80;1.00;;;;;;6066916;23;20407;-73
2022/12/06 09:51:47;;;;;;;0.50;0.10;;;5.90;1.00;;;;;;6027777;23;20916;-75
2022/12/06 09:54:34;;;;;;;0.50;0.10;;;5.90;1.00;;;;;;6066398;23;20410;-73
2022/12/06 09:57:08;;;;;;;0.50;0.10;;;5.90;1.00;;;;;;6066790;23;20421;-75
2022/12/06 09:59:47;;;;;;;0.50;0.10;;;6.00;1.00;;;;;;6066574;23;20447;-74
2022/12/06 10:02:37;;;;;;;0.50;0.20;;;6.00;1.00;;;;;;6065931;23;20444;-74
2022/12/06 10:05:28;;;;;;;0.50;0.10;;;6.00;1.00;;;;;;6066404;23;20408;-75
2022/12/06 10:08:07;;;;;;;0.50;0.10;;;6.00;1.00;;;;;;6066155;23;20423;-75
2022/12/06 10:10:50;;;;;;;0.50;0.10;;;6.10;1.00;;;;;;6066169;23;20408;-74
2022/12/06 10:13:27;;;;;;;0.50;0.10;;;6.10;1.00;;;;;;6065180;23;20392;-74
2022/12/06 10:16:04;;;;;;;0.50;0.10;;;6.20;1.00;;;;;;6066010;23;20450;-74
2022/12/06 10:18:57;;;;;;;0.50;0.10;;;6.20;1.00;;;;;;6065980;23;20412;-74
2022/12/06 10:21:36;;;;;;;0.50;0.10;;;6.30;1.00;;;;;;6065565;23;20424;-74
2022/12/06 10:24:18;;;;;;;0.50;0.10;;;6.30;1.00;;;;;;6066185;23;20428;-75
2022/12/06 10:26:49;;;;;;;0.50;0.10;;;6.30;1.00;;;;;;6065069;23;20407;-74
2022/12/06 10:29:20;;;;;;;0.50;0.10;;;6.40;1.00;;;;;;6066157;23;20471;-75
2022/12/06 10:31:59;;;;;;;0.50;0.10;;;6.40;1.00;;;;;;6066336;23;20466;-74
2022/12/06 10:34:44;;;;;;;0.50;0.10;;;6.40;1.00;;;;;;6065978;23;20490;-75
2022/12/06 10:37:42;;;;;;;0.50;0.10;;;6.50;1.00;;;;;;6065611;23;20443;-75
2022/12/06 10:40:17;;;;;;;0.50;0.30;;;6.50;1.00;;;;;;6066092;23;20541;-79
2022/12/06 10:42:50;;;;;;;0.50;0.10;;;6.60;1.00;;;;;;6065837;23;20424;-75
2022/12/06 10:48:17;;;;;;;0.50;0.10;;;6.50;1.00;;;;;;6066029;23;20411;-74
2022/12/06 10:50:48;;;;;;;0.50;0.10;;;6.50;1.00;;;;;;6065739;23;20938;-75
2022/12/06 10:53:20;;;;;;;0.50;0.20;;;6.50;1.00;;;;;;6065692;23;20905;-75
2022/12/06 10:55:56;;;;;;;0.50;0.10;;;6.50;1.00;;;;;;6065722;23;20889;-73
2022/12/06 10:58:32;;;;;;;0.50;0.10;;;6.60;1.00;;;;;;6066193;23;20443;-73
2022/12/06 11:01:04;;;;;;;0.50;0.10;;;6.60;1.00;;;;;;6066153;23;20447;-73
2022/12/06 11:03:39;;;;;;;0.50;0.10;;;6.60;1.00;;;;;;6068869;23;20407;-73
2022/12/06 11:06:13;;;;;;;0.50;0.10;;;6.60;1.00;;;;;;6067007;23;20467;-74
2022/12/06 11:08:46;;;;;;;0.50;0.10;;;6.60;1.00;;;;;;6066902;23;20412;-75
2022/12/06 11:11:21;;;;;;;0.50;0.10;;;6.60;1.00;;;;;;6066307;23;20427;-74
2022/12/06 11:13:54;;;;;;;0.50;0.10;;;6.60;1.00;;;;;;6074122;23;20414;-75
2022/12/06 11:16:26;;;;;;;0.50;0.10;;;6.60;1.00;;;;;;6067014;23;20415;-74
2022/12/06 11:19:00;;;;;;;0.50;0.10;;;6.60;1.00;;;;;;6065759;23;20392;-74
2022/12/06 11:21:31;;;;;;;0.50;0.10;;;6.70;1.00;;;;;;6066448;23;20458;-74
2022/12/06 11:24:07;;;;;;;0.50;0.10;;;6.70;1.00;;;;;;6066824;23;20408;-75
2022/12/06 11:26:41;;;;;;;0.50;0.10;;;6.70;1.00;;;;;;6066045;23;20459;-73
2022/12/06 11:29:12;;;;;;;0.50;0.10;;;6.70;1.00;;;;;;6066986;23;20407;-73
2022/12/06 11:31:44;;;;;;;0.50;0.10;;;6.70;1.00;;;;;;6065486;23;20498;-72
2022/12/06 11:34:18;;;;;;;0.50;0.10;;;6.70;1.00;;;;;;6065766;23;20786;-74
2022/12/06 11:36:49;;;;;;;0.50;0.10;;;6.80;1.00;;;;;;6066897;23;20388;-74
2022/12/06 11:39:23;;;;;;;0.50;0.10;;;6.80;1.00;;;;;;6070053;23;20868;-75
2022/12/06 11:41:55;;;;;;;0.50;0.10;;;6.80;1.00;;;;;;6070054;23;21035;-74
2022/12/06 11:44:26;;;;;;;0.50;0.10;;;6.70;1.00;;;;;;6067700;23;20388;-74
2022/12/06 11:46:57;;;;;;;0.50;0.10;;;6.80;1.00;;;;;;6068219;23;20406;-74
2022/12/06 11:49:30;;;;;;;0.50;0.10;;;6.80;1.00;;;;;;6066304;23;20447;-74
2022/12/06 11:52:06;;;;;;;0.50;0.10;;;6.80;1.00;;;;;;6069218;23;20437;-75
2022/12/06 11:54:38;;;;;;;0.50;0.10;;;6.80;1.00;;;;;;6066328;23;20392;-74
2022/12/06 11:57:16;;;;;;;0.50;0.10;;;6.80;1.00;;;;;;6066005;23;20415;-73
2022/12/06 12:00:15;;;;;;;0.50;0.10;;;6.90;1.00;;;;;;6070737;23;20471;-73
2022/12/06 12:02:45;;;;;;;0.50;0.10;;;6.90;1.00;;;;;;6069359;23;20498;-73
2022/12/06 12:05:20;;;;;;;0.50;0.20;;;6.90;1.00;;;;;;6067960;23;20759;-72
2022/12/06 12:07:54;;;;;;;0.50;0.10;;;6.90;1.00;;;;;;6067495;23;20905;-74
2022/12/06 12:10:28;;;;;;;0.50;0.10;;;7.00;1.00;;;;;;6066687;23;20425;-74
2022/12/06 12:16:05;;;;;;;0.50;0.10;;;7.10;1.00;;;;;;6066135;23;20400;-74
2022/12/06 12:18:35;;;;;;;0.50;0.10;;;7.00;1.00;;;;;;6066456;23;20412;-75
2022/12/06 12:21:06;;;;;;;0.60;0.47;;;7.00;1.00;;;;;;6067823;23;20458;-75
2022/12/06 12:23:37;;;;;;;0.80;0.37;;;7.00;1.00;;;;;;6068330;23;20415;-74
2022/12/06 12:26:12;;;;;;;0.50;0.20;;;7.00;1.00;;;;;;6068043;23;20447;-73
2022/12/06 12:28:43;;;;;;;0.50;0.10;;;6.90;1.00;;;;;;6068068;23;20934;-74
2022/12/06 12:31:17;;;;;;;0.50;0.10;;;6.90;1.00;;;;;;6067516;23;20936;-73
2022/12/06 12:33:46;;;;;;;0.50;0.10;;;6.90;1.00;;;;;;6067313;23;20407;-74
2022/12/06 12:36:17;;;;;;;0.50;0.10;;;6.90;1.00;;;;;;6067658;23;20414;-73
2022/12/06 12:38:54;;;;;;;0.50;0.10;;;7.00;1.00;;;;;;6068084;23;20791;-73
2022/12/06 12:41:30;;;;;;;0.60;0.50;;;7.00;1.00;;;;;;6067290;23;20454;-73
2022/12/06 12:44:03;;;;;;;0.50;0.10;;;7.00;1.00;;;;;;6067228;23;20411;-73
2022/12/06 12:46:55;;;;;;;0.50;0.10;;;7.00;1.00;;;;;;6067310;23;20415;-74
2022/12/06 12:49:29;;;;;;;0.50;0.10;;;7.00;1.00;;;;;;6067185;23;20463;-73
2022/12/06 12:51:58;;;;;;;0.50;0.10;;;7.10;1.00;;;;;;6067387;23;20419;-72
2022/12/06 12:54:30;;;;;;;0.50;0.10;;;7.10;1.00;;;;;;6067494;23;20496;-74
2022/12/06 12:56:59;;;;;;;0.50;0.10;;;7.10;1.00;;;;;;6066722;23;20377;-75
2022/12/06 12:59:35;;;;;;;0.50;0.10;;;7.10;1.00;;;;;;6066841;23;20404;-74
2022/12/06 13:02:12;;;;;;;0.50;0.10;;;7.10;1.00;;;;;;6066400;23;20789;-74
2022/12/06 13:04:41;;;;;;;0.50;0.10;;;;;;;;;;6067738;23;20411;-74
2022/12/06 13:07:17;;;;;;;0.50;0.10;;;7.10;1.00;;;;;;6067128;23;20464;-74
2022/12/06 13:09:53;;;;;;;0.50;0.10;;;7.10;1.00;;;;;;6066971;23;20800;-74
2022/12/06 13:12:27;;;;;;;0.50;0.10;;;7.10;1.00;;;;;;6067072;23;20431;-75
2022/12/06 13:15:02;;;;;;;0.50;0.10;;;7.10;1.00;;;;;;6067635;23;20411;-74
2022/12/06 13:17:33;;;;;;;0.50;0.10;;;7.10;1.00;;;;;;6067312;23;20391;-74
2022/12/06 13:20:03;;;;;;;0.50;0.10;;;7.10;1.00;;;;;;6067330;23;20420;-76
2022/12/06 13:22:37;;;;;;;0.50;0.10;;;7.10;1.00;;;;;;6067505;23;20450;-73
2022/12/06 13:25:07;;;;;;;0.50;0.10;;;7.10;1.00;;;;;;6067883;23;20412;-75
2022/12/06 13:27:40;;;;;;;0.50;0.10;;;7.10;1.00;;;;;;6070782;23;20800;-74
2022/12/06 13:30:18;;;;;;;0.50;0.10;;;7.10;1.00;;;;;;6073075;23;20396;-74
2022/12/06 13:32:50;;;;;;;0.50;0.10;;;7.10;1.00;;;;;;6071509;23;20439;-74
2022/12/06 13:35:25;;;;;;;0.50;0.10;;;7.10;1.00;;;;;;6074501;23;20403;-75
2022/12/06 13:37:56;;;;;;;0.50;0.10;;;7.00;1.00;;;;;;6074767;23;20775;-75
2022/12/06 13:40:47;;;;;;;0.50;0.10;;;7.10;1.00;;;;;;6086338;23;20414;-80
2022/12/06 13:43:54;;;;;;;0.50;0.10;;;7.10;1.00;;;;;;6086387;23;20396;-77
2022/12/06 13:46:28;;;;;;;0.50;0.10;;;6.90;1.00;;;;;;6084886;23;20438;-77
2022/12/06 13:48:58;;;;;;;0.50;0.10;;;7.00;1.00;;;;;;6087755;23;20399;-78
2022/12/06 13:51:48;;;;;;;0.50;0.10;;;7.00;1.00;;;;;;6088434;23;20484;-77
2022/12/06 13:54:37;;;;;;;0.50;0.10;;;7.00;1.00;;;;;;6088517;23;20776;-76
2022/12/06 13:57:28;;;;;;;0.50;0.10;;;7.00;1.00;;;;;;6083606;23;20415;-78
2022/12/06 13:59:56;;;;;;;0.50;0.10;;;7.00;1.00;;;;;;6088562;23;20408;-78
2022/12/06 14:02:45;;;;;;;0.50;0.10;;;7.00;1.00;;;;;;6086663;23;20475;-78
2022/12/06 14:05:50;;;;;;;0.50;0.10;;;7.00;1.00;;;;;;6087443;23;20434;-77
2022/12/06 14:08:17;;;;;;;0.50;0.10;;;7.00;1.00;;;;;;6086718;23;20431;-77
2022/12/06 14:10:45;;;;;;;0.50;0.10;;;7.00;1.00;;;;;;6087434;23;20408;-78
2022/12/06 14:13:18;;;;;;;0.50;0.10;;;7.00;1.00;;;;;;6079449;23;20443;-78
2022/12/06 14:15:51;;;;;;;0.50;0.10;;;7.00;1.00;;;;;;6074659;23;20435;-78
2022/12/06 14:18:27;;;;;;;0.50;0.20;;;7.00;1.00;;;;;;6074626;23;20407;-80
2022/12/06 14:20:57;;;;;;;0.50;0.10;;;7.00;1.00;;;;;;6071208;23;20420;-77
2022/12/06 14:23:29;;;;;;;0.50;0.20;;;6.90;1.00;;;;;;6072216;23;20845;-77
2022/12/06 14:26:14;;;;;;;0.50;0.10;;;6.90;1.00;;;;;;6072660;23;20444;-77
2022/12/06 14:28:43;;;;;;;0.50;0.10;;;6.80;1.00;;;;;;6070002;23;20490;-77
2022/12/06 14:31:21;;;;;;;0.50;0.10;;;6.80;1.00;;;;;;6070197;23;20507;-77
2022/12/06 14:33:51;;;;;;;0.50;0.10;;;6.80;1.00;;;;;;6072647;23;20449;-78
2022/12/06 14:36:23;;;;;;;0.50;0.10;;;6.90;1.00;;;;;;6070549;23;20415;-77
2022/12/06 14:38:53;;;;;;;0.50;0.10;;;8.20;1.00;;;;;;6071737;23;20467;-77
2022/12/06 14:44:15;;;;;;;0.50;0.10;;;6.90;1.00;;;;;;6070410;23;20407;-77
2022/12/06 14:46:45;;;;;;;0.50;0.10;;;6.90;1.00;;;;;;6071885;23;20463;-78
2022/12/06 14:52:16;;;;;;;0.50;0.10;;;6.80;1.00;;;;;;6071488;23;20491;-77
2022/12/06 14:54:45;;;;;;;0.50;0.20;;;6.70;1.00;;;;;;6072808;23;20428;-77
2022/12/06 14:57:22;;;;;;;0.50;0.10;;;6.70;1.00;;;;;;6072903;23;20412;-76
2022/12/06 15:00:02;;;;;;;0.50;0.10;;;6.60;1.00;;;;;;6071132;23;20411;-78
2022/12/06 15:03:00;;;;;;;0.50;0.10;;;6.70;1.00;;;;;;6074426;23;20463;-79
2022/12/06 15:05:36;;;;;;;0.50;0.10;;;6.70;1.00;;;;;;6079547;23;20408;-79
2022/12/06 15:08:31;;;;;;;0.50;0.10;;;6.70;1.00;;;;;;6074978;23;20427;-78
2022/12/06 15:11:01;;;;;;;0.50;0.10;;;6.60;1.00;;;;;;6074944;23;20428;-78
2022/12/06 15:13:29;;;;;;;0.50;0.10;;;;;;;;;;6075248;23;20411;-79
2022/12/06 15:16:04;;;;;;;0.50;0.10;;;6.60;1.00;;;;;;6073541;23;20396;-79
2022/12/06 15:18:34;;;;;;;0.50;0.10;;;6.60;1.00;;;;;;6070947;23;20407;-77
2022/12/06 15:21:10;;;;;;;0.50;0.10;;;6.50;1.00;;;;;;6073597;23;20434;-79
2022/12/06 15:23:39;;;;;;;0.93;0.83;;;6.50;1.00;;;;;;6072269;23;20447;-78
2022/12/06 15:26:11;;;;;;;0.50;0.20;;;6.50;1.00;;;;;;6074265;23;20478;-79
2022/12/06 15:28:39;;;;;;;0.50;0.10;;;6.50;1.00;;;;;;6073442;23;20388;-78
2022/12/06 15:31:13;;;;;;;0.50;0.10;;;6.60;1.00;;;;;;6072828;23;20428;-77
2022/12/06 15:33:41;;;;;;;0.50;0.10;;;6.60;1.00;;;;;;6073004;23;20770;-79
2022/12/06 15:36:15;;;;;;;0.50;0.10;;;6.60;1.00;;;;;;6071146;23;20455;-78
2022/12/06 15:38:42;;;;;;;0.93;0.87;;;6.60;1.00;;;;;;6073900;23;20408;-78
2022/12/06 15:41:15;;;;;;;0.87;0.57;;;6.50;1.00;;;;;;6075691;23;20438;-78
2022/12/06 15:43:43;;;;;;;0.50;0.10;;;6.40;1.00;;;;;;6079608;23;20443;-78
2022/12/06 15:46:18;;;;;;;0.50;0.27;;;6.40;1.00;;;;;;6077960;23;20467;-78
2022/12/06 15:48:47;;;;;;;0.50;0.10;;;6.40;1.00;;;;;;6078207;23;20872;-78
2022/12/06 15:51:18;;;;;;;0.80;0.40;;;6.50;1.00;;;;;;6079080;23;20435;-78
2022/12/06 15:53:49;;;;;;;0.50;0.10;;;6.40;1.00;;;;;;6076124;23;20792;-78
2022/12/06 15:56:20;;;;;;;0.50;0.10;;;6.40;1.00;;;;;;6077301;23;20404;-77
2022/12/06 15:58:49;;;;;;;0.70;0.43;;;6.40;1.00;;;;;;6077812;23;20392;-78
2022/12/06 16:01:19;;;;;;;0.50;0.10;;;6.40;1.00;;;;;;6079344;23;20450;-79
2022/12/06 16:03:47;;;;;;;0.50;0.10;;;6.30;1.00;;;;;;6076084;23;20447;-78
2022/12/06 16:06:18;;;;;;;0.87;0.87;;;6.30;1.00;;;;;;6076333;23;20414;-78
2022/12/06 16:08:47;;;;;;;0.50;0.10;;;6.30;1.00;;;;;;6075816;23;20408;-78
2022/12/06 16:11:16;;;;;;;0.50;0.10;;;6.30;1.00;;;;;;6074962;23;20461;-79
2022/12/06 16:13:44;;;;;;;0.50;0.10;;;6.30;1.00;;;;;;6075628;23;20421;-78
2022/12/06 16:16:15;;;;;;;0.50;0.20;;;6.30;1.00;;;;;;6074367;23;20418;-77
2022/12/06 16:18:43;;;;;;;0.50;0.10;;;6.30;1.00;;;;;;6071326;23;20495;-80
2022/12/06 16:21:20;;;;;;;0.50;0.10;;;6.20;1.00;;;;;;6072118;23;20428;-78
2022/12/06 16:24:00;;;;;;;0.50;0.10;;;6.30;1.00;;;;;;6069843;23;20521;-80
2022/12/06 16:26:44;;;;;;;0.50;0.10;;;6.20;1.00;;;;;;6073527;23;20422;-79
2022/12/06 16:29:15;;;;;;;0.50;0.10;;;6.30;1.00;;;;;;6077251;23;20904;-79
2022/12/06 16:31:44;;;;;;;0.50;0.10;;;6.30;1.00;;;;;;6075811;23;20431;-77
2022/12/06 16:34:13;;;;;;;0.50;0.10;;;;;;;;;;6081922;23;20468;-78
2022/12/06 16:36:56;;;;;;;0.50;0.20;;;;;;;;;;6087002;23;20407;-78
2022/12/06 16:39:24;;;;;;;3.20;3.00;;;6.20;1.00;;;;;;6084393;23;20427;-77
2022/12/06 16:41:52;;;;;;;0.50;0.10;;;6.30;1.00;;;;;;6081690;23;20428;-77
2022/12/06 16:44:20;;;;;;;0.50;0.10;;;;;;;;;;6075428;23;20465;-77
2022/12/06 16:46:48;;;;;;;0.50;0.13;;;6.20;1.00;;;;;;6080242;23;20400;-78
2022/12/06 16:49:20;;;;;;;0.50;0.10;;;6.20;1.00;;;;;;6090286;23;20483;-77
2022/12/06 16:52:09;;;;;;;0.50;0.10;;;6.30;1.00;;;;;;6084148;23;20427;-77
2022/12/06 16:54:39;;;;;;;0.50;0.10;;;6.30;1.00;;;;;;6074541;23;20801;-79
2022/12/06 16:57:08;;;;;;;0.50;0.10;;;6.30;1.00;;;;;;6071590;23;20851;-77
2022/12/06 16:59:37;;;;;;;0.50;0.10;;;6.30;1.00;;;;;;6072155;23;20415;-77
2022/12/06 17:02:19;;;;;;;0.50;0.10;;;6.30;1.00;;;;;;6072161;23;20452;-79
2022/12/06 17:04:47;;;;;;;0.50;0.10;;;6.30;1.00;;;;;;6073350;23;20392;-78
2022/12/06 17:07:17;;;;;;;2.20;2.00;;;;;;;;;;6072995;23;20403;-79
2022/12/06 17:09:45;;;;;;;0.60;0.33;;;6.30;1.00;;;;;;6073418;23;20404;-79
2022/12/06 17:12:14;;;;;;;0.50;0.10;;;6.40;1.00;;;;;;6075714;23;20428;-79
2022/12/06 17:14:42;;;;;;;0.50;0.10;;;6.40;1.00;;;;;;6074111;23;20412;-77
2022/12/06 17:17:13;;;;;;;0.50;0.10;;;6.40;1.00;;;;;;6079505;23;20472;-78
2022/12/06 17:19:42;;;;;;;0.50;0.10;;;6.40;1.00;;;;;;6083455;23;20380;-79
2022/12/06 17:22:11;;;;;;;0.50;0.10;;;6.40;1.00;;;;;;6081453;23;20438;-76
2022/12/06 17:24:41;;;;;;;0.50;0.10;;;;;;;;;;6083394;23;20466;-79
2022/12/06 17:27:09;;;;;;;0.50;0.10;;;6.40;1.00;;;;;;6080115;23;20742;-79
2022/12/06 17:29:37;;;;;;;0.50;0.10;;;6.30;1.00;;;;;;6079680;23;20422;-79
2022/12/06 17:32:05;;;;;;;0.50;0.10;;;6.40;1.00;;;;;;6077273;23;20443;-79
2022/12/06 17:34:34;;;;;;;0.50;0.10;;;6.40;1.00;;;;;;6074263;23;20407;-77
2022/12/06 17:37:04;;;;;;;0.50;0.10;;;;;;;;;;6074667;23;20418;-79
2022/12/06 17:39:33;;;;;;;0.50;0.10;;;6.40;1.00;;;;;;6075484;23;20415;-78
2022/12/06 17:44:49;;;;;;;0.50;0.10;;;6.40;1.00;;;;;;6075633;23;20447;-80
2022/12/06 17:47:19;;;;;;;0.50;0.10;;;6.40;1.00;;;;;;6074365;23;20439;-78
2022/12/06 17:49:47;;;;;;;0.50;0.10;;;6.40;1.00;;;;;;6073331;23;20415;-78
2022/12/06 17:52:16;;;;;;;0.50;0.10;;;6.40;1.00;;;;;;6077208;23;20462;-79